sensor_id;sensor_type;location;lat;lon;timestamp;P1;durP1;ratioP1;P2;durP2;ratioP2
19589;SDS011;12231;42.782;23.388;2023-05-16T00:01:41;13.70;;;8.40;;
19589;SDS011;12231;42.782;23.388;2023-05-16T00:04:06;9.27;;;7.85;;
19589;SDS011;12231;42.782;23.388;2023-05-16T00:06:32;10.68;;;7.88;;
19589;SDS011;12231;42.782;23.388;2023-05-16T00:08:58;10.63;;;8.15;;
19589;SDS011;12231;42.782;23.388;2023-05-16T00:11:23;11.38;;;8.60;;
19589;SDS011;12231;42.782;23.388;2023-05-16T00:13:48;12.02;;;8.07;;
19589;SDS011;12231;42.782;23.388;2023-05-16T00:16:13;10.07;;;7.78;;
19589;SDS011;12231;42.782;23.388;2023-05-16T00:18:39;9.80;;;7.90;;
19589;SDS011;12231;42.782;23.388;2023-05-16T00:21:04;9.48;;;8.02;;
19589;SDS011;12231;42.782;23.388;2023-05-16T00:23:30;11.50;;;8.27;;
19589;SDS011;12231;42.782;23.388;2023-05-16T00:25:55;11.65;;;8.48;;
19589;SDS011;12231;42.782;23.388;2023-05-16T00:28:21;11.85;;;9.48;;
19589;SDS011;12231;42.782;23.388;2023-05-16T00:30:46;13.75;;;9.43;;
19589;SDS011;12231;42.782;23.388;2023-05-16T00:33:11;10.85;;;8.48;;
19589;SDS011;12231;42.782;23.388;2023-05-16T00:35:37;8.57;;;7.43;;
19589;SDS011;12231;42.782;23.388;2023-05-16T00:38:02;10.90;;;7.97;;
19589;SDS011;12231;42.782;23.388;2023-05-16T00:40:27;10.63;;;8.68;;
19589;SDS011;12231;42.782;23.388;2023-05-16T00:42:52;10.88;;;8.10;;
19589;SDS011;12231;42.782;23.388;2023-05-16T00:45:18;10.63;;;8.48;;
19589;SDS011;12231;42.782;23.388;2023-05-16T00:47:43;13.85;;;8.68;;
19589;SDS011;12231;42.782;23.388;2023-05-16T00:50:08;12.35;;;9.00;;
19589;SDS011;12231;42.782;23.388;2023-05-16T00:52:34;11.57;;;8.75;;
19589;SDS011;12231;42.782;23.388;2023-05-16T00:55:00;9.88;;;8.15;;
19589;SDS011;12231;42.782;23.388;2023-05-16T00:57:26;15.43;;;9.43;;
19589;SDS011;12231;42.782;23.388;2023-05-16T00:59:51;15.02;;;9.07;;
19589;SDS011;12231;42.782;23.388;2023-05-16T01:02:16;11.82;;;8.88;;
19589;SDS011;12231;42.782;23.388;2023-05-16T01:04:42;10.40;;;8.52;;
19589;SDS011;12231;42.782;23.388;2023-05-16T01:07:07;12.27;;;8.90;;
19589;SDS011;12231;42.782;23.388;2023-05-16T01:09:32;10.85;;;8.50;;
19589;SDS011;12231;42.782;23.388;2023-05-16T01:12:13;10.98;;;7.80;;
19589;SDS011;12231;42.782;23.388;2023-05-16T01:27:56;10.07;;;7.88;;
19589;SDS011;12231;42.782;23.388;2023-05-16T01:30:21;12.48;;;9.02;;
19589;SDS011;12231;42.782;23.388;2023-05-16T01:32:46;10.05;;;8.10;;
19589;SDS011;12231;42.782;23.388;2023-05-16T01:35:12;11.02;;;7.60;;
19589;SDS011;12231;42.782;23.388;2023-05-16T01:37:48;12.57;;;8.38;;
19589;SDS011;12231;42.782;23.388;2023-05-16T01:40:40;10.85;;;8.05;;
19589;SDS011;12231;42.782;23.388;2023-05-16T01:43:03;9.73;;;7.72;;
19589;SDS011;12231;42.782;23.388;2023-05-16T01:45:30;13.23;;;8.55;;
19589;SDS011;12231;42.782;23.388;2023-05-16T01:48:41;11.10;;;8.20;;
19589;SDS011;12231;42.782;23.388;2023-05-16T01:50:47;12.97;;;8.27;;
19589;SDS011;12231;42.782;23.388;2023-05-16T01:53:17;11.03;;;8.67;;
19589;SDS011;12231;42.782;23.388;2023-05-16T01:55:44;10.88;;;7.93;;
19589;SDS011;12231;42.782;23.388;2023-05-16T01:58:11;10.57;;;8.23;;
19589;SDS011;12231;42.782;23.388;2023-05-16T02:00:37;11.50;;;8.18;;
19589;SDS011;12231;42.782;23.388;2023-05-16T02:03:03;11.57;;;8.23;;
19589;SDS011;12231;42.782;23.388;2023-05-16T02:05:29;9.95;;;7.75;;
19589;SDS011;12231;42.782;23.388;2023-05-16T02:07:54;10.27;;;8.05;;
19589;SDS011;12231;42.782;23.388;2023-05-16T02:10:19;9.77;;;8.48;;
19589;SDS011;12231;42.782;23.388;2023-05-16T02:12:45;9.05;;;7.47;;
19589;SDS011;12231;42.782;23.388;2023-05-16T02:15:10;9.67;;;7.37;;
19589;SDS011;12231;42.782;23.388;2023-05-16T02:17:35;8.00;;;6.47;;
19589;SDS011;12231;42.782;23.388;2023-05-16T02:20:01;9.95;;;7.55;;
19589;SDS011;12231;42.782;23.388;2023-05-16T02:22:31;9.88;;;7.10;;
19589;SDS011;12231;42.782;23.388;2023-05-16T02:24:56;8.63;;;6.55;;
19589;SDS011;12231;42.782;23.388;2023-05-16T02:27:21;11.18;;;6.95;;
19589;SDS011;12231;42.782;23.388;2023-05-16T02:29:46;9.90;;;7.32;;
19589;SDS011;12231;42.782;23.388;2023-05-16T02:32:11;9.55;;;7.57;;
19589;SDS011;12231;42.782;23.388;2023-05-16T02:34:37;10.35;;;7.25;;
19589;SDS011;12231;42.782;23.388;2023-05-16T02:37:02;10.88;;;8.02;;
19589;SDS011;12231;42.782;23.388;2023-05-16T02:39:27;9.77;;;7.30;;
19589;SDS011;12231;42.782;23.388;2023-05-16T02:41:54;9.23;;;6.65;;
19589;SDS011;12231;42.782;23.388;2023-05-16T02:44:19;9.10;;;7.40;;
19589;SDS011;12231;42.782;23.388;2023-05-16T02:46:44;9.98;;;7.00;;
19589;SDS011;12231;42.782;23.388;2023-05-16T02:49:10;9.60;;;7.43;;
19589;SDS011;12231;42.782;23.388;2023-05-16T02:51:35;9.82;;;7.40;;
19589;SDS011;12231;42.782;23.388;2023-05-16T02:54:00;10.95;;;7.53;;
19589;SDS011;12231;42.782;23.388;2023-05-16T02:56:26;11.55;;;7.93;;
19589;SDS011;12231;42.782;23.388;2023-05-16T02:58:52;12.05;;;7.65;;
19589;SDS011;12231;42.782;23.388;2023-05-16T03:01:17;11.77;;;7.93;;
19589;SDS011;12231;42.782;23.388;2023-05-16T03:03:42;10.50;;;7.88;;
19589;SDS011;12231;42.782;23.388;2023-05-16T03:06:08;11.63;;;7.47;;
19589;SDS011;12231;42.782;23.388;2023-05-16T03:08:33;12.10;;;8.23;;
19589;SDS011;12231;42.782;23.388;2023-05-16T03:10:59;10.77;;;7.97;;
19589;SDS011;12231;42.782;23.388;2023-05-16T03:13:24;10.75;;;8.35;;
19589;SDS011;12231;42.782;23.388;2023-05-16T03:15:50;11.73;;;8.68;;
19589;SDS011;12231;42.782;23.388;2023-05-16T03:18:15;9.38;;;6.97;;
19589;SDS011;12231;42.782;23.388;2023-05-16T03:20:40;10.95;;;8.07;;
19589;SDS011;12231;42.782;23.388;2023-05-16T03:23:06;14.73;;;8.95;;
19589;SDS011;12231;42.782;23.388;2023-05-16T03:25:32;9.60;;;7.85;;
19589;SDS011;12231;42.782;23.388;2023-05-16T03:27:58;12.95;;;8.48;;
19589;SDS011;12231;42.782;23.388;2023-05-16T03:30:23;10.90;;;8.55;;
19589;SDS011;12231;42.782;23.388;2023-05-16T03:32:48;11.93;;;9.40;;
19589;SDS011;12231;42.782;23.388;2023-05-16T03:35:14;12.57;;;8.53;;
19589;SDS011;12231;42.782;23.388;2023-05-16T03:37:39;10.30;;;8.33;;
19589;SDS011;12231;42.782;23.388;2023-05-16T03:40:04;9.85;;;8.27;;
19589;SDS011;12231;42.782;23.388;2023-05-16T03:42:30;10.18;;;8.23;;
19589;SDS011;12231;42.782;23.388;2023-05-16T03:44:56;11.25;;;8.98;;
19589;SDS011;12231;42.782;23.388;2023-05-16T03:47:21;10.70;;;8.02;;
19589;SDS011;12231;42.782;23.388;2023-05-16T03:49:46;9.98;;;8.00;;
19589;SDS011;12231;42.782;23.388;2023-05-16T03:52:12;12.10;;;8.85;;
19589;SDS011;12231;42.782;23.388;2023-05-16T03:54:37;12.87;;;8.73;;
19589;SDS011;12231;42.782;23.388;2023-05-16T03:57:02;13.83;;;9.13;;
19589;SDS011;12231;42.782;23.388;2023-05-16T03:59:27;11.07;;;8.30;;
19589;SDS011;12231;42.782;23.388;2023-05-16T04:01:53;18.73;;;8.20;;
19589;SDS011;12231;42.782;23.388;2023-05-16T04:04:18;12.43;;;8.57;;
19589;SDS011;12231;42.782;23.388;2023-05-16T04:06:43;12.00;;;8.67;;
19589;SDS011;12231;42.782;23.388;2023-05-16T04:09:08;15.55;;;9.07;;
19589;SDS011;12231;42.782;23.388;2023-05-16T04:11:34;12.13;;;8.77;;
19589;SDS011;12231;42.782;23.388;2023-05-16T04:14:00;11.13;;;8.27;;
19589;SDS011;12231;42.782;23.388;2023-05-16T04:16:25;15.30;;;8.73;;
19589;SDS011;12231;42.782;23.388;2023-05-16T04:18:50;11.32;;;9.13;;
19589;SDS011;12231;42.782;23.388;2023-05-16T04:21:16;10.95;;;9.25;;
19589;SDS011;12231;42.782;23.388;2023-05-16T04:23:41;12.85;;;9.05;;
19589;SDS011;12231;42.782;23.388;2023-05-16T04:26:06;12.57;;;9.50;;
19589;SDS011;12231;42.782;23.388;2023-05-16T04:28:32;13.05;;;9.75;;
19589;SDS011;12231;42.782;23.388;2023-05-16T04:30:58;12.32;;;9.93;;
19589;SDS011;12231;42.782;23.388;2023-05-16T04:33:23;12.37;;;9.43;;
19589;SDS011;12231;42.782;23.388;2023-05-16T04:35:48;13.63;;;9.97;;
19589;SDS011;12231;42.782;23.388;2023-05-16T04:38:13;13.18;;;9.43;;
19589;SDS011;12231;42.782;23.388;2023-05-16T04:40:39;15.00;;;9.30;;
19589;SDS011;12231;42.782;23.388;2023-05-16T04:43:05;13.07;;;9.35;;
19589;SDS011;12231;42.782;23.388;2023-05-16T04:45:31;12.88;;;9.07;;
19589;SDS011;12231;42.782;23.388;2023-05-16T04:47:56;12.30;;;9.80;;
19589;SDS011;12231;42.782;23.388;2023-05-16T04:50:21;13.45;;;9.52;;
19589;SDS011;12231;42.782;23.388;2023-05-16T04:52:46;15.30;;;9.60;;
19589;SDS011;12231;42.782;23.388;2023-05-16T04:55:12;18.10;;;10.07;;
19589;SDS011;12231;42.782;23.388;2023-05-16T04:57:37;16.60;;;11.50;;
19589;SDS011;12231;42.782;23.388;2023-05-16T05:00:02;20.13;;;12.45;;
19589;SDS011;12231;42.782;23.388;2023-05-16T05:02:31;17.35;;;11.00;;
19589;SDS011;12231;42.782;23.388;2023-05-16T05:04:57;17.55;;;10.85;;
19589;SDS011;12231;42.782;23.388;2023-05-16T05:07:22;16.95;;;10.93;;
19589;SDS011;12231;42.782;23.388;2023-05-16T05:09:47;19.42;;;14.43;;
19589;SDS011;12231;42.782;23.388;2023-05-16T05:12:12;13.13;;;9.63;;
19589;SDS011;12231;42.782;23.388;2023-05-16T05:14:38;11.80;;;9.35;;
19589;SDS011;12231;42.782;23.388;2023-05-16T05:17:03;13.10;;;9.45;;
19589;SDS011;12231;42.782;23.388;2023-05-16T05:19:28;12.88;;;9.50;;
19589;SDS011;12231;42.782;23.388;2023-05-16T05:21:54;14.77;;;9.20;;
19589;SDS011;12231;42.782;23.388;2023-05-16T05:24:19;13.43;;;9.63;;
19589;SDS011;12231;42.782;23.388;2023-05-16T05:26:44;14.38;;;10.20;;
19589;SDS011;12231;42.782;23.388;2023-05-16T05:29:09;12.55;;;9.20;;
19589;SDS011;12231;42.782;23.388;2023-05-16T05:31:35;18.17;;;9.85;;
19589;SDS011;12231;42.782;23.388;2023-05-16T05:34:00;11.40;;;9.07;;
19589;SDS011;12231;42.782;23.388;2023-05-16T05:36:25;12.70;;;9.00;;
19589;SDS011;12231;42.782;23.388;2023-05-16T05:38:50;11.65;;;9.23;;
19589;SDS011;12231;42.782;23.388;2023-05-16T05:41:16;11.40;;;8.85;;
19589;SDS011;12231;42.782;23.388;2023-05-16T05:43:41;12.13;;;9.65;;
19589;SDS011;12231;42.782;23.388;2023-05-16T05:46:06;15.03;;;9.37;;
19589;SDS011;12231;42.782;23.388;2023-05-16T05:48:31;12.77;;;8.45;;
19589;SDS011;12231;42.782;23.388;2023-05-16T05:50:57;11.82;;;9.18;;
19589;SDS011;12231;42.782;23.388;2023-05-16T05:53:22;11.25;;;9.68;;
19589;SDS011;12231;42.782;23.388;2023-05-16T05:55:47;13.70;;;9.63;;
19589;SDS011;12231;42.782;23.388;2023-05-16T05:58:12;15.27;;;9.25;;
19589;SDS011;12231;42.782;23.388;2023-05-16T06:00:38;16.77;;;9.55;;
19589;SDS011;12231;42.782;23.388;2023-05-16T06:03:03;18.25;;;8.90;;
19589;SDS011;12231;42.782;23.388;2023-05-16T06:05:28;15.85;;;9.90;;
19589;SDS011;12231;42.782;23.388;2023-05-16T06:07:54;16.73;;;10.45;;
19589;SDS011;12231;42.782;23.388;2023-05-16T06:10:19;16.50;;;9.35;;
19589;SDS011;12231;42.782;23.388;2023-05-16T06:12:45;14.60;;;9.02;;
19589;SDS011;12231;42.782;23.388;2023-05-16T06:15:10;13.15;;;9.20;;
19589;SDS011;12231;42.782;23.388;2023-05-16T06:17:35;12.38;;;9.20;;
19589;SDS011;12231;42.782;23.388;2023-05-16T06:20:01;14.45;;;9.43;;
19589;SDS011;12231;42.782;23.388;2023-05-16T06:22:26;10.60;;;7.90;;
19589;SDS011;12231;42.782;23.388;2023-05-16T06:24:51;15.18;;;9.90;;
19589;SDS011;12231;42.782;23.388;2023-05-16T06:27:16;14.55;;;8.90;;
19589;SDS011;12231;42.782;23.388;2023-05-16T06:29:41;11.23;;;7.88;;
19589;SDS011;12231;42.782;23.388;2023-05-16T06:32:07;11.02;;;8.10;;
19589;SDS011;12231;42.782;23.388;2023-05-16T06:34:32;9.55;;;7.18;;
19589;SDS011;12231;42.782;23.388;2023-05-16T06:36:57;11.07;;;7.85;;
19589;SDS011;12231;42.782;23.388;2023-05-16T06:39:23;10.27;;;7.65;;
19589;SDS011;12231;42.782;23.388;2023-05-16T06:41:48;12.15;;;7.95;;
19589;SDS011;12231;42.782;23.388;2023-05-16T06:44:14;9.60;;;7.35;;
19589;SDS011;12231;42.782;23.388;2023-05-16T06:46:39;11.55;;;8.25;;
19589;SDS011;12231;42.782;23.388;2023-05-16T06:49:04;10.90;;;8.63;;
19589;SDS011;12231;42.782;23.388;2023-05-16T06:51:31;12.38;;;8.02;;
19589;SDS011;12231;42.782;23.388;2023-05-16T06:53:57;10.18;;;7.97;;
19589;SDS011;12231;42.782;23.388;2023-05-16T06:56:22;9.50;;;7.57;;
19589;SDS011;12231;42.782;23.388;2023-05-16T06:58:48;13.13;;;8.07;;
19589;SDS011;12231;42.782;23.388;2023-05-16T07:01:14;14.02;;;8.02;;
19589;SDS011;12231;42.782;23.388;2023-05-16T07:03:40;10.88;;;7.90;;
19589;SDS011;12231;42.782;23.388;2023-05-16T07:06:05;12.82;;;8.27;;
19589;SDS011;12231;42.782;23.388;2023-05-16T07:08:30;12.45;;;8.63;;
19589;SDS011;12231;42.782;23.388;2023-05-16T07:10:55;11.77;;;8.07;;
19589;SDS011;12231;42.782;23.388;2023-05-16T07:13:21;11.38;;;8.05;;
19589;SDS011;12231;42.782;23.388;2023-05-16T07:15:46;10.85;;;7.40;;
19589;SDS011;12231;42.782;23.388;2023-05-16T07:18:11;12.10;;;8.27;;
19589;SDS011;12231;42.782;23.388;2023-05-16T07:20:36;14.13;;;8.68;;
19589;SDS011;12231;42.782;23.388;2023-05-16T07:23:02;11.23;;;7.70;;
19589;SDS011;12231;42.782;23.388;2023-05-16T07:25:28;12.73;;;8.88;;
19589;SDS011;12231;42.782;23.388;2023-05-16T07:27:53;11.70;;;8.02;;
19589;SDS011;12231;42.782;23.388;2023-05-16T07:30:20;10.70;;;7.82;;
19589;SDS011;12231;42.782;23.388;2023-05-16T07:32:45;12.65;;;8.18;;
19589;SDS011;12231;42.782;23.388;2023-05-16T07:35:10;9.80;;;7.97;;
19589;SDS011;12231;42.782;23.388;2023-05-16T07:37:37;12.30;;;8.60;;
19589;SDS011;12231;42.782;23.388;2023-05-16T07:40:02;9.98;;;6.97;;
19589;SDS011;12231;42.782;23.388;2023-05-16T07:42:27;10.43;;;8.07;;
19589;SDS011;12231;42.782;23.388;2023-05-16T07:44:53;11.57;;;8.07;;
19589;SDS011;12231;42.782;23.388;2023-05-16T07:47:18;13.32;;;8.10;;
19589;SDS011;12231;42.782;23.388;2023-05-16T07:49:43;12.85;;;8.00;;
19589;SDS011;12231;42.782;23.388;2023-05-16T07:52:09;10.80;;;8.07;;
19589;SDS011;12231;42.782;23.388;2023-05-16T07:54:34;10.80;;;7.38;;
19589;SDS011;12231;42.782;23.388;2023-05-16T07:57:00;12.05;;;7.75;;
19589;SDS011;12231;42.782;23.388;2023-05-16T07:59:25;10.38;;;7.47;;
19589;SDS011;12231;42.782;23.388;2023-05-16T08:01:50;13.70;;;7.82;;
19589;SDS011;12231;42.782;23.388;2023-05-16T08:04:15;9.25;;;7.38;;
19589;SDS011;12231;42.782;23.388;2023-05-16T08:06:41;15.38;;;8.35;;
19589;SDS011;12231;42.782;23.388;2023-05-16T08:09:06;8.23;;;7.35;;
19589;SDS011;12231;42.782;23.388;2023-05-16T08:11:32;11.38;;;7.57;;
19589;SDS011;12231;42.782;23.388;2023-05-16T08:13:58;13.20;;;7.97;;
19589;SDS011;12231;42.782;23.388;2023-05-16T08:16:23;8.75;;;6.97;;
19589;SDS011;12231;42.782;23.388;2023-05-16T08:18:48;12.77;;;7.95;;
19589;SDS011;12231;42.782;23.388;2023-05-16T08:21:14;10.82;;;7.38;;
19589;SDS011;12231;42.782;23.388;2023-05-16T08:23:40;10.77;;;7.82;;
19589;SDS011;12231;42.782;23.388;2023-05-16T08:26:05;11.93;;;7.70;;
19589;SDS011;12231;42.782;23.388;2023-05-16T08:28:31;9.52;;;7.57;;
19589;SDS011;12231;42.782;23.388;2023-05-16T08:30:57;11.00;;;7.25;;
19589;SDS011;12231;42.782;23.388;2023-05-16T08:33:22;10.95;;;7.38;;
19589;SDS011;12231;42.782;23.388;2023-05-16T08:35:49;12.88;;;7.65;;
19589;SDS011;12231;42.782;23.388;2023-05-16T08:38:14;12.95;;;8.50;;
19589;SDS011;12231;42.782;23.388;2023-05-16T08:40:39;12.13;;;7.28;;
19589;SDS011;12231;42.782;23.388;2023-05-16T08:43:05;9.63;;;7.88;;
19589;SDS011;12231;42.782;23.388;2023-05-16T08:45:30;8.90;;;7.07;;
19589;SDS011;12231;42.782;23.388;2023-05-16T08:47:55;7.63;;;6.82;;
19589;SDS011;12231;42.782;23.388;2023-05-16T08:50:21;9.27;;;7.15;;
19589;SDS011;12231;42.782;23.388;2023-05-16T08:52:49;9.77;;;7.35;;
19589;SDS011;12231;42.782;23.388;2023-05-16T08:55:15;10.65;;;7.55;;
19589;SDS011;12231;42.782;23.388;2023-05-16T08:57:40;11.07;;;7.72;;
19589;SDS011;12231;42.782;23.388;2023-05-16T09:00:06;10.98;;;7.15;;
19589;SDS011;12231;42.782;23.388;2023-05-16T09:02:36;10.50;;;7.70;;
19589;SDS011;12231;42.782;23.388;2023-05-16T09:05:01;9.65;;;7.28;;
19589;SDS011;12231;42.782;23.388;2023-05-16T09:07:27;9.95;;;7.63;;
19589;SDS011;12231;42.782;23.388;2023-05-16T09:09:53;12.45;;;7.55;;
19589;SDS011;12231;42.782;23.388;2023-05-16T09:12:20;9.32;;;6.95;;
19589;SDS011;12231;42.782;23.388;2023-05-16T09:14:46;9.40;;;6.57;;
19589;SDS011;12231;42.782;23.388;2023-05-16T09:17:11;10.05;;;6.50;;
19589;SDS011;12231;42.782;23.388;2023-05-16T09:19:40;8.98;;;6.57;;
19589;SDS011;12231;42.782;23.388;2023-05-16T09:22:07;11.63;;;6.25;;
19589;SDS011;12231;42.782;23.388;2023-05-16T09:24:35;11.10;;;6.57;;
19589;SDS011;12231;42.782;23.388;2023-05-16T09:27:09;6.95;;;6.25;;
19589;SDS011;12231;42.782;23.388;2023-05-16T09:29:34;11.38;;;6.20;;
19589;SDS011;12231;42.782;23.388;2023-05-16T09:32:12;11.82;;;7.18;;
19589;SDS011;12231;42.782;23.388;2023-05-16T09:34:44;9.63;;;6.47;;
19589;SDS011;12231;42.782;23.388;2023-05-16T09:37:13;8.15;;;6.28;;
19589;SDS011;12231;42.782;23.388;2023-05-16T09:39:39;8.75;;;6.43;;
19589;SDS011;12231;42.782;23.388;2023-05-16T09:42:05;7.32;;;6.05;;
19589;SDS011;12231;42.782;23.388;2023-05-16T09:44:31;11.77;;;6.18;;
19589;SDS011;12231;42.782;23.388;2023-05-16T09:46:56;9.05;;;6.13;;
19589;SDS011;12231;42.782;23.388;2023-05-16T09:49:22;9.38;;;7.13;;
19589;SDS011;12231;42.782;23.388;2023-05-16T09:51:48;8.77;;;6.00;;
19589;SDS011;12231;42.782;23.388;2023-05-16T09:54:13;9.15;;;6.32;;
19589;SDS011;12231;42.782;23.388;2023-05-16T09:56:49;13.02;;;6.20;;
19589;SDS011;12231;42.782;23.388;2023-05-16T09:59:14;7.15;;;6.22;;
19589;SDS011;12231;42.782;23.388;2023-05-16T10:01:40;9.05;;;5.90;;
19589;SDS011;12231;42.782;23.388;2023-05-16T10:04:06;7.20;;;6.53;;
19589;SDS011;12231;42.782;23.388;2023-05-16T10:06:34;17.27;;;7.45;;
19589;SDS011;12231;42.782;23.388;2023-05-16T10:09:00;7.72;;;6.10;;
19589;SDS011;12231;42.782;23.388;2023-05-16T10:11:25;12.25;;;7.07;;
19589;SDS011;12231;42.782;23.388;2023-05-16T10:13:51;9.10;;;5.80;;
19589;SDS011;12231;42.782;23.388;2023-05-16T10:16:17;9.95;;;5.72;;
19589;SDS011;12231;42.782;23.388;2023-05-16T10:18:42;8.52;;;6.47;;
19589;SDS011;12231;42.782;23.388;2023-05-16T10:21:09;10.80;;;6.07;;
19589;SDS011;12231;42.782;23.388;2023-05-16T10:23:35;10.55;;;6.18;;
19589;SDS011;12231;42.782;23.388;2023-05-16T10:26:02;11.50;;;6.18;;
19589;SDS011;12231;42.782;23.388;2023-05-16T10:28:28;6.95;;;5.43;;
19589;SDS011;12231;42.782;23.388;2023-05-16T10:30:53;7.63;;;5.60;;
19589;SDS011;12231;42.782;23.388;2023-05-16T10:33:19;5.43;;;4.90;;
19589;SDS011;12231;42.782;23.388;2023-05-16T10:35:45;11.80;;;5.60;;
19589;SDS011;12231;42.782;23.388;2023-05-16T10:38:11;7.35;;;5.25;;
19589;SDS011;12231;42.782;23.388;2023-05-16T10:40:37;7.15;;;4.88;;
19589;SDS011;12231;42.782;23.388;2023-05-16T10:43:03;6.60;;;5.25;;
19589;SDS011;12231;42.782;23.388;2023-05-16T10:45:29;5.90;;;5.30;;
19589;SDS011;12231;42.782;23.388;2023-05-16T10:47:58;7.47;;;5.88;;
19589;SDS011;12231;42.782;23.388;2023-05-16T10:50:40;8.27;;;6.03;;
19589;SDS011;12231;42.782;23.388;2023-05-16T10:53:19;9.52;;;6.03;;
19589;SDS011;12231;42.782;23.388;2023-05-16T10:55:49;9.82;;;5.68;;
19589;SDS011;12231;42.782;23.388;2023-05-16T10:58:22;6.68;;;5.97;;
19589;SDS011;12231;42.782;23.388;2023-05-16T11:00:48;6.25;;;5.43;;
19589;SDS011;12231;42.782;23.388;2023-05-16T11:03:23;7.28;;;5.03;;
19589;SDS011;12231;42.782;23.388;2023-05-16T11:05:52;5.85;;;5.25;;
19589;SDS011;12231;42.782;23.388;2023-05-16T11:08:18;6.57;;;5.22;;
19589;SDS011;12231;42.782;23.388;2023-05-16T11:10:43;9.95;;;5.60;;
19589;SDS011;12231;42.782;23.388;2023-05-16T11:13:08;5.75;;;5.22;;
19589;SDS011;12231;42.782;23.388;2023-05-16T11:15:34;9.00;;;4.85;;
19589;SDS011;12231;42.782;23.388;2023-05-16T11:18:02;6.60;;;4.82;;
19589;SDS011;12231;42.782;23.388;2023-05-16T11:20:29;6.95;;;4.38;;
19589;SDS011;12231;42.782;23.388;2023-05-16T11:25:40;8.38;;;5.15;;
19589;SDS011;12231;42.782;23.388;2023-05-16T11:28:06;8.30;;;4.97;;
19589;SDS011;12231;42.782;23.388;2023-05-16T11:30:32;6.32;;;5.25;;
19589;SDS011;12231;42.782;23.388;2023-05-16T11:32:57;7.57;;;5.25;;
19589;SDS011;12231;42.782;23.388;2023-05-16T11:35:22;6.85;;;4.68;;
19589;SDS011;12231;42.782;23.388;2023-05-16T11:37:48;6.82;;;4.95;;
19589;SDS011;12231;42.782;23.388;2023-05-16T11:40:14;6.13;;;5.53;;
19589;SDS011;12231;42.782;23.388;2023-05-16T11:42:41;11.35;;;5.82;;
19589;SDS011;12231;42.782;23.388;2023-05-16T11:45:11;6.32;;;5.53;;
19589;SDS011;12231;42.782;23.388;2023-05-16T11:47:40;7.40;;;5.60;;
19589;SDS011;12231;42.782;23.388;2023-05-16T11:50:27;11.00;;;5.65;;
19589;SDS011;12231;42.782;23.388;2023-05-16T11:52:52;5.20;;;4.70;;
19589;SDS011;12231;42.782;23.388;2023-05-16T11:55:19;6.80;;;6.10;;
19589;SDS011;12231;42.782;23.388;2023-05-16T11:57:45;8.60;;;5.47;;
19589;SDS011;12231;42.782;23.388;2023-05-16T12:02:36;8.43;;;4.65;;
19589;SDS011;12231;42.782;23.388;2023-05-16T12:05:06;5.78;;;4.70;;
19589;SDS011;12231;42.782;23.388;2023-05-16T12:07:33;8.02;;;5.47;;
19589;SDS011;12231;42.782;23.388;2023-05-16T12:09:58;7.90;;;4.75;;
19589;SDS011;12231;42.782;23.388;2023-05-16T12:12:24;9.05;;;4.82;;
19589;SDS011;12231;42.782;23.388;2023-05-16T12:14:49;6.10;;;4.65;;
19589;SDS011;12231;42.782;23.388;2023-05-16T12:17:14;7.45;;;4.95;;
19589;SDS011;12231;42.782;23.388;2023-05-16T12:19:40;7.70;;;5.15;;
19589;SDS011;12231;42.782;23.388;2023-05-16T12:22:14;7.70;;;5.20;;
19589;SDS011;12231;42.782;23.388;2023-05-16T12:24:39;7.40;;;5.05;;
19589;SDS011;12231;42.782;23.388;2023-05-16T12:27:04;10.18;;;5.30;;
19589;SDS011;12231;42.782;23.388;2023-05-16T12:29:32;7.10;;;5.50;;
19589;SDS011;12231;42.782;23.388;2023-05-16T12:31:57;8.90;;;5.30;;
19589;SDS011;12231;42.782;23.388;2023-05-16T12:34:27;5.55;;;5.07;;
19589;SDS011;12231;42.782;23.388;2023-05-16T12:36:52;9.38;;;5.10;;
19589;SDS011;12231;42.782;23.388;2023-05-16T12:39:18;11.88;;;6.05;;
19589;SDS011;12231;42.782;23.388;2023-05-16T12:41:47;6.25;;;5.22;;
19589;SDS011;12231;42.782;23.388;2023-05-16T12:44:13;8.63;;;5.65;;
19589;SDS011;12231;42.782;23.388;2023-05-16T12:46:50;8.52;;;6.35;;
19589;SDS011;12231;42.782;23.388;2023-05-16T12:49:19;8.75;;;5.05;;
19589;SDS011;12231;42.782;23.388;2023-05-16T12:51:48;6.10;;;5.28;;
19589;SDS011;12231;42.782;23.388;2023-05-16T12:54:14;6.40;;;5.72;;
19589;SDS011;12231;42.782;23.388;2023-05-16T12:56:42;9.65;;;6.53;;
19589;SDS011;12231;42.782;23.388;2023-05-16T12:59:08;12.90;;;7.90;;
19589;SDS011;12231;42.782;23.388;2023-05-16T13:01:34;7.85;;;6.07;;
19589;SDS011;12231;42.782;23.388;2023-05-16T13:03:59;7.63;;;6.28;;
19589;SDS011;12231;42.782;23.388;2023-05-16T13:06:25;10.55;;;6.38;;
19589;SDS011;12231;42.782;23.388;2023-05-16T13:08:50;7.38;;;5.80;;
19589;SDS011;12231;42.782;23.388;2023-05-16T13:11:16;7.82;;;6.25;;
19589;SDS011;12231;42.782;23.388;2023-05-16T13:13:41;10.80;;;6.13;;
19589;SDS011;12231;42.782;23.388;2023-05-16T13:16:06;12.68;;;6.07;;
19589;SDS011;12231;42.782;23.388;2023-05-16T13:18:31;8.48;;;5.45;;
19589;SDS011;12231;42.782;23.388;2023-05-16T13:20:58;9.25;;;6.30;;
19589;SDS011;12231;42.782;23.388;2023-05-16T13:23:23;9.32;;;6.13;;
19589;SDS011;12231;42.782;23.388;2023-05-16T13:25:48;6.90;;;5.68;;
19589;SDS011;12231;42.782;23.388;2023-05-16T13:28:13;12.05;;;6.72;;
19589;SDS011;12231;42.782;23.388;2023-05-16T13:30:39;10.50;;;5.28;;
19589;SDS011;12231;42.782;23.388;2023-05-16T13:33:05;6.55;;;5.78;;
19589;SDS011;12231;42.782;23.388;2023-05-16T13:35:30;9.75;;;5.32;;
19589;SDS011;12231;42.782;23.388;2023-05-16T13:37:55;7.72;;;4.82;;
19589;SDS011;12231;42.782;23.388;2023-05-16T13:40:21;9.35;;;5.70;;
19589;SDS011;12231;42.782;23.388;2023-05-16T13:42:46;8.73;;;5.88;;
19589;SDS011;12231;42.782;23.388;2023-05-16T13:45:11;12.55;;;5.80;;
19589;SDS011;12231;42.782;23.388;2023-05-16T13:47:37;12.00;;;6.22;;
19589;SDS011;12231;42.782;23.388;2023-05-16T13:50:02;9.52;;;5.75;;
19589;SDS011;12231;42.782;23.388;2023-05-16T13:52:31;8.82;;;5.82;;
19589;SDS011;12231;42.782;23.388;2023-05-16T13:54:56;10.93;;;5.85;;
19589;SDS011;12231;42.782;23.388;2023-05-16T13:57:22;8.63;;;5.47;;
19589;SDS011;12231;42.782;23.388;2023-05-16T13:59:47;9.82;;;5.63;;
19589;SDS011;12231;42.782;23.388;2023-05-16T14:02:12;7.03;;;5.72;;
19589;SDS011;12231;42.782;23.388;2023-05-16T14:04:38;10.40;;;5.72;;
19589;SDS011;12231;42.782;23.388;2023-05-16T14:07:03;7.40;;;5.93;;
19589;SDS011;12231;42.782;23.388;2023-05-16T14:09:29;10.15;;;6.03;;
19589;SDS011;12231;42.782;23.388;2023-05-16T14:11:54;7.40;;;5.95;;
19589;SDS011;12231;42.782;23.388;2023-05-16T14:14:19;9.15;;;6.45;;
19589;SDS011;12231;42.782;23.388;2023-05-16T14:16:45;9.23;;;5.88;;
19589;SDS011;12231;42.782;23.388;2023-05-16T14:19:11;7.68;;;6.15;;
19589;SDS011;12231;42.782;23.388;2023-05-16T14:21:37;12.07;;;7.15;;
19589;SDS011;12231;42.782;23.388;2023-05-16T14:24:02;10.93;;;7.30;;
19589;SDS011;12231;42.782;23.388;2023-05-16T14:26:27;9.63;;;5.22;;
19589;SDS011;12231;42.782;23.388;2023-05-16T14:28:53;9.57;;;6.15;;
19589;SDS011;12231;42.782;23.388;2023-05-16T14:31:20;14.80;;;7.00;;
19589;SDS011;12231;42.782;23.388;2023-05-16T14:33:45;9.75;;;6.40;;
19589;SDS011;12231;42.782;23.388;2023-05-16T14:36:10;14.40;;;8.68;;
19589;SDS011;12231;42.782;23.388;2023-05-16T14:38:35;13.05;;;8.20;;